createdAt,value
2022-08-11T00:01:26.694Z,100353.00
2022-08-11T00:03:58.498Z,100355.00
2022-08-11T00:06:30.318Z,100349.00
2022-08-11T00:09:02.754Z,100355.00
2022-08-11T00:11:38.043Z,100351.00
2022-08-11T00:14:15.639Z,100348.00
2022-08-11T00:16:46.330Z,100350.00
2022-08-11T00:20:12.423Z,100362.00
2022-08-11T00:22:12.673Z,100363.00
2022-08-11T00:24:53.342Z,100364.00
2022-08-11T00:27:34.373Z,100358.00
2022-08-11T00:30:03.054Z,100358.00
2022-08-11T00:32:32.343Z,100360.00
2022-08-11T00:35:53.963Z,100355.00
2022-08-11T00:37:55.555Z,100348.00
2022-08-11T00:40:36.577Z,100356.00
2022-08-11T00:43:24.726Z,100354.00
2022-08-11T00:46:12.236Z,100354.00
2022-08-11T00:49:01.249Z,100354.00
2022-08-11T00:52:03.830Z,100354.00
2022-08-11T00:55:39.146Z,100358.00
2022-08-11T00:59:34.656Z,100358.00
2022-08-11T01:02:18.979Z,100359.00
2022-08-11T01:05:35.486Z,100356.00
2022-08-11T01:08:55.670Z,100363.00
2022-08-11T01:12:06.849Z,100365.00
2022-08-11T01:15:20.242Z,100364.00
2022-08-11T01:18:32.443Z,100364.00
2022-08-11T01:22:21.109Z,100358.00
2022-08-11T01:25:56.713Z,100363.00
2022-08-11T01:29:26.582Z,100358.00
2022-08-11T01:32:38.959Z,100352.00
2022-08-11T01:35:37.350Z,100359.00
2022-08-11T01:38:49.340Z,100358.00
2022-08-11T01:41:52.766Z,100353.00
2022-08-11T01:45:03.613Z,100357.00
2022-08-11T01:47:54.171Z,100360.00
2022-08-11T01:50:40.843Z,100352.00
2022-08-11T01:53:29.327Z,100351.00
2022-08-11T01:56:15.090Z,100355.00
2022-08-11T01:58:49.605Z,100354.00
2022-08-11T02:01:42.673Z,100351.00
2022-08-11T02:04:26.586Z,100355.00
2022-08-11T02:07:10.687Z,100354.00
2022-08-11T02:10:23.495Z,100348.00
2022-08-11T02:13:16.786Z,100354.00
2022-08-11T02:16:18.065Z,100349.00
2022-08-11T02:19:13.862Z,100343.00
2022-08-11T02:22:11.012Z,100351.00
2022-08-11T02:24:53.290Z,100343.00
2022-08-11T02:27:26.019Z,100352.00
2022-08-11T02:30:07.382Z,100347.00
2022-08-11T02:33:05.943Z,100350.00
2022-08-11T02:35:47.210Z,100348.00
2022-08-11T02:38:26.317Z,100348.00
2022-08-11T02:41:30.350Z,100352.00
2022-08-11T02:44:26.844Z,100348.00
2022-08-11T02:47:24.122Z,100353.00
2022-08-11T02:50:07.319Z,100353.00
2022-08-11T02:52:47.023Z,100350.00
2022-08-11T02:55:56.050Z,100355.00
2022-08-11T02:58:35.446Z,100351.00
2022-08-11T03:01:16.518Z,100356.00
2022-08-11T03:03:58.749Z,100354.00
2022-08-11T03:06:46.069Z,100355.00
2022-08-11T03:09:25.833Z,100359.00
2022-08-11T03:12:25.435Z,100359.00
2022-08-11T03:15:20.404Z,100364.00
2022-08-11T03:18:03.931Z,100361.00
2022-08-11T03:20:43.659Z,100360.00
2022-08-11T03:23:24.556Z,100361.00
2022-08-11T03:26:02.436Z,100366.00
2022-08-11T03:28:37.450Z,100360.00
2022-08-11T03:31:24.745Z,100361.00
2022-08-11T03:34:06.306Z,100359.00
2022-08-11T03:37:17.934Z,100359.00
2022-08-11T03:40:00.929Z,100361.00
2022-08-11T03:42:43.246Z,100361.00
2022-08-11T03:45:26.466Z,100368.00
2022-08-11T03:48:13.911Z,100367.00
2022-08-11T03:50:58.923Z,100361.00
2022-08-11T03:53:50.322Z,100356.00
2022-08-11T03:57:17.729Z,100358.00
2022-08-11T04:00:20.442Z,100357.00
2022-08-11T04:03:36.096Z,100350.00
2022-08-11T04:06:49.006Z,100354.00
2022-08-11T04:10:34.458Z,100352.00
2022-08-11T04:13:51.515Z,100349.00
2022-08-11T04:16:44.336Z,100349.00
2022-08-11T04:19:54.690Z,100347.00
2022-08-11T04:23:12.797Z,100346.00
2022-08-11T04:26:37.471Z,100338.00
2022-08-11T04:29:24.909Z,100337.00
2022-08-11T04:32:32.658Z,100343.00
2022-08-11T04:35:24.204Z,100352.00
2022-08-11T04:38:39.398Z,100362.00
2022-08-11T04:41:34.388Z,100356.00
2022-08-11T04:44:45.624Z,100361.00
2022-08-11T04:48:04.257Z,100352.00
2022-08-11T04:51:17.106Z,100359.00
2022-08-11T04:54:19.041Z,100356.00
2022-08-11T04:57:23.369Z,100364.00
2022-08-11T05:00:25.986Z,100358.00
2022-08-11T05:03:37.785Z,100365.00
2022-08-11T05:06:53.758Z,100362.00
2022-08-11T05:09:50.433Z,100361.00
2022-08-11T05:12:38.036Z,100370.00
2022-08-11T05:15:30.392Z,100376.00
2022-08-11T05:18:34.217Z,100372.00
2022-08-11T05:21:28.236Z,100371.00
2022-08-11T05:24:32.612Z,100370.00
2022-08-11T05:27:24.123Z,100369.00
2022-08-11T05:30:21.214Z,100372.00
2022-08-11T05:33:18.496Z,100373.00
2022-08-11T05:36:00.189Z,100367.00
2022-08-11T05:38:54.736Z,100364.00
2022-08-11T05:41:45.626Z,100365.00
2022-08-11T05:44:39.223Z,100366.00
2022-08-11T05:47:26.832Z,100372.00
2022-08-11T05:50:13.528Z,100368.00
2022-08-11T05:53:05.115Z,100378.00
2022-08-11T05:56:02.786Z,100377.00
2022-08-11T05:58:42.814Z,100372.00
2022-08-11T06:01:13.908Z,100369.00
2022-08-11T06:04:04.206Z,100375.00
2022-08-11T06:06:33.107Z,100375.00
2022-08-11T06:09:02.549Z,100372.00
2022-08-11T06:11:44.326Z,100379.00
2022-08-11T06:14:16.338Z,100378.00
2022-08-11T06:16:49.608Z,100378.00
2022-08-11T06:19:23.095Z,100371.00
2022-08-11T06:21:53.174Z,100380.00
2022-08-11T06:24:21.637Z,100367.00
2022-08-11T06:29:55.047Z,100377.00
2022-08-11T06:32:28.567Z,100372.00
2022-08-11T06:35:22.927Z,100375.00
2022-08-11T06:38:09.800Z,100376.00
2022-08-11T06:41:08.389Z,100365.00
2022-08-11T06:43:55.598Z,100375.00
2022-08-11T06:46:31.435Z,100372.00
2022-08-11T06:49:05.004Z,100380.00
2022-08-11T06:51:34.979Z,100381.00
2022-08-11T06:54:05.966Z,100379.00
2022-08-11T06:57:26.486Z,100377.00
2022-08-11T07:00:03.613Z,100382.00
2022-08-11T07:02:38.923Z,100371.00
2022-08-11T07:05:17.451Z,100378.00
2022-08-11T07:09:03.425Z,100371.00
2022-08-11T07:12:36.261Z,100372.00
2022-08-11T07:16:11.280Z,100366.00
2022-08-11T07:18:45.191Z,100368.00
2022-08-11T07:22:00.131Z,100368.00
2022-08-11T07:24:59.401Z,100366.00
2022-08-11T07:27:55.475Z,100376.00
2022-08-11T07:30:26.149Z,100377.00
2022-08-11T07:32:57.530Z,100377.00
2022-08-11T07:35:33.804Z,100384.00
2022-08-11T07:38:08.272Z,100379.00
2022-08-11T07:40:37.584Z,100373.00
2022-08-11T07:43:07.159Z,100373.00
2022-08-11T07:45:53.615Z,100378.00
2022-08-11T07:48:39.921Z,100374.00
2022-08-11T07:51:27.431Z,100382.00
2022-08-11T07:53:58.619Z,100380.00
2022-08-11T07:56:55.431Z,100381.00
2022-08-11T08:00:04.124Z,100366.00
2022-08-11T08:02:58.863Z,100373.00
2022-08-11T08:05:45.298Z,100380.00
2022-08-11T08:08:34.538Z,100369.00
2022-08-11T08:11:27.106Z,100373.00
2022-08-11T08:14:14.700Z,100371.00
2022-08-11T08:17:01.345Z,100369.00
2022-08-11T08:19:30.712Z,100374.00
2022-08-11T08:22:10.999Z,100364.00
2022-08-11T08:24:49.840Z,100367.00
2022-08-11T08:27:19.233Z,100361.00
2022-08-11T08:30:06.018Z,100375.00
2022-08-11T08:32:36.012Z,100356.00
2022-08-11T08:35:06.173Z,100361.00
2022-08-11T08:37:45.506Z,100358.00
2022-08-11T08:40:16.231Z,100361.00
2022-08-11T08:42:55.924Z,100361.00
2022-08-11T08:45:27.297Z,100359.00
2022-08-11T08:48:07.122Z,100355.00
2022-08-11T08:51:01.286Z,100359.00
2022-08-11T08:53:36.424Z,100362.00
2022-08-11T08:56:10.687Z,100358.00
2022-08-11T08:58:42.511Z,100356.00
2022-08-11T09:01:12.949Z,100357.00
2022-08-11T09:04:04.612Z,100353.00
2022-08-11T09:06:33.463Z,100352.00
2022-08-11T09:09:01.931Z,100354.00
2022-08-11T09:11:48.896Z,100356.00
2022-08-11T09:14:18.131Z,100350.00
2022-08-11T09:16:48.704Z,100349.00
2022-08-11T09:19:20.512Z,100342.00
2022-08-11T09:22:13.303Z,100351.00
2022-08-11T09:24:59.897Z,100351.00
2022-08-11T09:27:29.594Z,100342.00
2022-08-11T09:29:58.045Z,100349.00
2022-08-11T09:32:29.238Z,100361.00
2022-08-11T09:34:58.468Z,100355.00
2022-08-11T09:37:55.517Z,100363.00
2022-08-11T09:40:33.392Z,100347.00
2022-08-11T09:43:24.214Z,100348.00
2022-08-11T09:45:54.784Z,100349.00
2022-08-11T09:48:25.460Z,100342.00
2022-08-11T09:50:56.355Z,100361.00
2022-08-11T09:53:36.400Z,100343.00
2022-08-11T09:56:33.600Z,100340.00
2022-08-11T09:59:04.439Z,100346.00
2022-08-11T10:01:47.282Z,100340.00
2022-08-11T10:04:20.326Z,100340.00
2022-08-11T10:07:04.357Z,100330.00
2022-08-11T10:09:42.980Z,100332.00
2022-08-11T10:12:24.440Z,100333.00
2022-08-11T10:15:19.493Z,100330.00
2022-08-11T10:18:08.269Z,100331.00
2022-08-11T10:20:39.371Z,100318.00
2022-08-11T10:23:28.501Z,100312.00
2022-08-11T10:26:15.574Z,100316.00
2022-08-11T10:29:10.028Z,100309.00
2022-08-11T10:31:57.772Z,100316.00
2022-08-11T10:34:29.143Z,100302.00
2022-08-11T10:37:03.037Z,100294.00
2022-08-11T10:39:31.540Z,100294.00
2022-08-11T10:42:56.838Z,100302.00
2022-08-11T10:45:36.761Z,100305.00
2022-08-11T10:48:10.996Z,100296.00
2022-08-11T10:51:05.527Z,100284.00
2022-08-11T10:53:52.774Z,100300.00
2022-08-11T10:56:40.645Z,100300.00
2022-08-11T10:59:11.058Z,100288.00
2022-08-11T11:01:44.238Z,100286.00
2022-08-11T11:04:19.257Z,100278.00
2022-08-11T11:06:57.095Z,100273.00
2022-08-11T11:09:32.322Z,100274.00
2022-08-11T11:12:25.407Z,100274.00
2022-08-11T11:15:16.125Z,100264.00
2022-08-11T11:18:01.443Z,100271.00
2022-08-11T11:20:39.997Z,100269.00
2022-08-11T11:23:19.932Z,100265.00
2022-08-11T11:26:26.941Z,100259.00
2022-08-11T11:29:49.506Z,100260.00
2022-08-11T11:32:31.877Z,100263.00
2022-08-11T11:35:30.433Z,100255.00
2022-08-11T11:38:04.354Z,100242.00
2022-08-11T11:40:35.186Z,100238.00
2022-08-11T11:43:05.186Z,100248.00
2022-08-11T11:45:33.499Z,100245.00
2022-08-11T11:48:03.357Z,100232.00
2022-08-11T11:50:36.446Z,100247.00
2022-08-11T11:53:09.624Z,100253.00
2022-08-11T11:55:38.719Z,100238.00
2022-08-11T11:58:25.928Z,100233.00
2022-08-11T12:01:13.182Z,100222.00
2022-08-11T12:03:41.908Z,100220.00
2022-08-11T12:06:14.326Z,100233.00
2022-08-11T12:08:45.700Z,100222.00
2022-08-11T12:11:32.476Z,100222.00
2022-08-11T12:14:10.661Z,100216.00
2022-08-11T12:16:42.315Z,100209.00
2022-08-11T12:19:14.398Z,100208.00
2022-08-11T12:22:04.904Z,100210.00
2022-08-11T12:24:54.848Z,100214.00
2022-08-11T12:27:26.032Z,100214.00
2022-08-11T12:29:58.372Z,100204.00
2022-08-11T12:32:33.021Z,100202.00
2022-08-11T12:35:01.592Z,100210.00
2022-08-11T12:37:36.204Z,100212.00
2022-08-11T12:40:42.801Z,100194.00
2022-08-11T12:43:40.107Z,100196.00
2022-08-11T12:46:12.006Z,100198.00
2022-08-11T12:49:04.807Z,100206.00
2022-08-11T12:52:11.654Z,100213.00
2022-08-11T12:54:57.058Z,100185.00
2022-08-11T12:57:50.869Z,100173.00
2022-08-11T13:00:38.994Z,100170.00
2022-08-11T13:03:27.755Z,100180.00
2022-08-11T13:05:58.647Z,100172.00
2022-08-11T13:08:30.312Z,100177.00
2022-08-11T13:11:19.395Z,100183.00
2022-08-11T13:13:57.047Z,100184.00
2022-08-11T13:16:31.499Z,100166.00
2022-08-11T13:19:01.838Z,100171.00
2022-08-11T13:21:31.175Z,100161.00
2022-08-11T13:24:03.640Z,100149.00
2022-08-11T13:26:47.595Z,100161.00
2022-08-11T13:29:27.174Z,100150.00
2022-08-11T13:32:00.755Z,100140.00
2022-08-11T13:34:32.332Z,100137.00
2022-08-11T13:37:05.156Z,100127.00
2022-08-11T13:39:36.298Z,100134.00
2022-08-11T13:42:06.001Z,100126.00
2022-08-11T13:44:38.736Z,100133.00
2022-08-11T13:47:09.801Z,100130.00
2022-08-11T13:49:40.958Z,100123.00
2022-08-11T13:52:15.317Z,100124.00
2022-08-11T13:54:45.607Z,100114.00
2022-08-11T13:58:08.080Z,100117.00
2022-08-11T14:00:13.276Z,100120.00
2022-08-11T14:02:57.442Z,100103.00
2022-08-11T14:05:32.209Z,100117.00
2022-08-11T14:08:03.775Z,100116.00
2022-08-11T14:10:35.345Z,100113.00
2022-08-11T14:13:29.011Z,100111.00
2022-08-11T14:16:18.778Z,100118.00
2022-08-11T14:18:52.446Z,100118.00
2022-08-11T14:21:45.236Z,100097.00
2022-08-11T14:24:13.671Z,100103.00
2022-08-11T14:26:44.219Z,100110.00
2022-08-11T14:29:16.972Z,100089.00
2022-08-11T14:31:49.418Z,100090.00
2022-08-11T14:34:21.524Z,100084.00
2022-08-11T14:36:53.516Z,100084.00
2022-08-11T14:39:27.262Z,100117.00
2022-08-11T14:42:16.138Z,100094.00
2022-08-11T14:45:05.292Z,100096.00
2022-08-11T14:47:38.605Z,100093.00
2022-08-11T14:50:14.002Z,100088.00
2022-08-11T14:52:51.106Z,100083.00
2022-08-11T14:55:39.064Z,100084.00
2022-08-11T14:58:10.593Z,100089.00
2022-08-11T15:00:40.212Z,100088.00
2022-08-11T15:03:12.271Z,100083.00
2022-08-11T15:05:56.352Z,100086.00
2022-08-11T15:08:49.919Z,100086.00
2022-08-11T15:11:39.093Z,100067.00
2022-08-11T15:14:10.166Z,100091.00
2022-08-11T15:17:00.104Z,100064.00
2022-08-11T15:19:40.238Z,100068.00
2022-08-11T15:22:28.182Z,100066.00
2022-08-11T15:24:58.119Z,100064.00
2022-08-11T15:27:47.455Z,100063.00
2022-08-11T15:30:34.204Z,100075.00
2022-08-11T15:33:21.866Z,100063.00
2022-08-11T15:36:18.977Z,100067.00
2022-08-11T15:38:56.130Z,100060.00
2022-08-11T15:41:54.587Z,100066.00
2022-08-11T15:45:05.527Z,100067.00
2022-08-11T15:47:41.383Z,100066.00
2022-08-11T15:50:15.679Z,100065.00
2022-08-11T15:52:53.706Z,100062.00
2022-08-11T15:55:23.745Z,100061.00
2022-08-11T15:58:14.514Z,100057.00
2022-08-11T16:01:08.845Z,100060.00
2022-08-11T16:04:07.436Z,100046.00
2022-08-11T16:06:54.330Z,100058.00
2022-08-11T16:09:39.049Z,100047.00
2022-08-11T16:12:26.485Z,100051.00
2022-08-11T16:15:20.128Z,100044.00
2022-08-11T16:17:52.776Z,100045.00
2022-08-11T16:20:24.538Z,100043.00
2022-08-11T16:23:01.820Z,100037.00
2022-08-11T16:27:02.259Z,100046.00
2022-08-11T16:28:26.052Z,100039.00
2022-08-11T16:30:56.432Z,100042.00
2022-08-11T16:33:48.586Z,100040.00
2022-08-11T16:36:35.172Z,100034.00
2022-08-11T16:39:04.886Z,100030.00
2022-08-11T16:41:56.107Z,100022.00
2022-08-11T16:44:47.998Z,100025.00
2022-08-11T16:48:02.927Z,100026.00
2022-08-11T16:50:10.834Z,100028.00
2022-08-11T16:52:38.877Z,100026.00
2022-08-11T16:55:09.982Z,100025.00
2022-08-11T16:58:00.033Z,100025.00
2022-08-11T17:00:29.886Z,100034.00
2022-08-11T17:03:20.773Z,100021.00
2022-08-11T17:06:12.179Z,100022.00
2022-08-11T17:09:05.167Z,100016.00
2022-08-11T17:11:58.867Z,100023.00
2022-08-11T17:14:44.597Z,100015.00
2022-08-11T17:17:19.514Z,100015.00
2022-08-11T17:20:41.550Z,100021.00
2022-08-11T17:23:01.494Z,100017.00
2022-08-11T17:25:59.310Z,100023.00
2022-08-11T17:28:24.516Z,100025.00
2022-08-11T17:31:21.749Z,100030.00
2022-08-11T17:34:10.395Z,100028.00
2022-08-11T17:36:45.154Z,100021.00
2022-08-11T17:39:15.288Z,100020.00
2022-08-11T17:42:03.023Z,100016.00
2022-08-11T17:44:51.469Z,100022.00
2022-08-11T17:47:39.585Z,100022.00
2022-08-11T17:50:17.442Z,100023.00
2022-08-11T17:53:05.799Z,100026.00
2022-08-11T17:55:54.329Z,100022.00
2022-08-11T17:58:41.636Z,100023.00
2022-08-11T18:01:12.060Z,100032.00
2022-08-11T18:03:56.363Z,100030.00
2022-08-11T18:06:34.043Z,100026.00
2022-08-11T18:09:26.435Z,100032.00
2022-08-11T18:12:14.165Z,100035.00
2022-08-11T18:15:05.618Z,100039.00
2022-08-11T18:17:52.563Z,100038.00
2022-08-11T18:20:41.566Z,100044.00
2022-08-11T18:23:40.317Z,100047.00
2022-08-11T18:26:38.495Z,100051.00
2022-08-11T18:29:26.579Z,100056.00
2022-08-11T18:32:21.312Z,100051.00
2022-08-11T18:35:12.658Z,100032.00
2022-08-11T18:38:06.029Z,100056.00
2022-08-11T18:40:54.838Z,100054.00
2022-08-11T18:43:44.715Z,100058.00
2022-08-11T18:46:35.181Z,100057.00
2022-08-11T18:49:34.883Z,100060.00
2022-08-11T18:52:38.501Z,100058.00
2022-08-11T18:55:32.148Z,100066.00
2022-08-11T18:58:23.037Z,100067.00
2022-08-11T19:01:13.407Z,100075.00
2022-08-11T19:04:03.799Z,100080.00
2022-08-11T19:07:00.081Z,100080.00
2022-08-11T19:09:48.508Z,100081.00
2022-08-11T19:12:38.958Z,100075.00
2022-08-11T19:15:27.578Z,100073.00
2022-08-11T19:18:15.533Z,100078.00
2022-08-11T19:21:03.564Z,100074.00
2022-08-11T19:23:55.025Z,100080.00
2022-08-11T19:26:42.999Z,100084.00
2022-08-11T19:30:11.931Z,100081.00
2022-08-11T19:32:38.876Z,100090.00
2022-08-11T19:35:27.437Z,100076.00
2022-08-11T19:38:14.177Z,100075.00
2022-08-11T19:41:01.758Z,100079.00
2022-08-11T19:43:49.859Z,100074.00
2022-08-11T19:46:41.362Z,100074.00
2022-08-11T19:49:28.973Z,100081.00
2022-08-11T19:52:16.259Z,100082.00
2022-08-11T19:55:03.810Z,100083.00
2022-08-11T19:57:53.349Z,100083.00
2022-08-11T20:00:40.204Z,100086.00
2022-08-11T20:03:30.276Z,100084.00
2022-08-11T20:06:21.480Z,100091.00
2022-08-11T20:09:09.775Z,100088.00
2022-08-11T20:12:01.400Z,100095.00
2022-08-11T20:14:55.735Z,100092.00
2022-08-11T20:17:45.630Z,100098.00
2022-08-11T20:20:36.044Z,100100.00
2022-08-11T20:23:25.845Z,100096.00
2022-08-11T20:26:30.303Z,100100.00
2022-08-11T20:29:19.175Z,100093.00
2022-08-11T20:32:09.677Z,100095.00
2022-08-11T20:34:57.968Z,100086.00
2022-08-11T20:37:50.990Z,100093.00
2022-08-11T20:40:39.672Z,100097.00
2022-08-11T20:44:06.533Z,100097.00
2022-08-11T20:46:39.116Z,100102.00
2022-08-11T20:49:44.274Z,100103.00
2022-08-11T20:52:35.728Z,100105.00
2022-08-11T20:55:26.144Z,100106.00
2022-08-11T20:59:01.098Z,100108.00
2022-08-11T21:01:41.156Z,100115.00
2022-08-11T21:04:28.037Z,100112.00
2022-08-11T21:07:24.743Z,100115.00
2022-08-11T21:10:23.265Z,100115.00
2022-08-11T21:13:25.211Z,100118.00
2022-08-11T21:16:25.438Z,100121.00
2022-08-11T21:19:55.144Z,100121.00
2022-08-11T21:22:34.287Z,100131.00
2022-08-11T21:25:21.467Z,100130.00
2022-08-11T21:28:14.479Z,100119.00
2022-08-11T21:31:01.108Z,100122.00
2022-08-11T21:33:50.192Z,100126.00
2022-08-11T21:36:38.321Z,100130.00
2022-08-11T21:39:27.931Z,100127.00
2022-08-11T21:42:15.298Z,100132.00
2022-08-11T21:45:05.065Z,100128.00
2022-08-11T21:48:00.902Z,100126.00
2022-08-11T21:50:47.508Z,100135.00
2022-08-11T21:53:34.565Z,100133.00
2022-08-11T21:56:22.004Z,100130.00
2022-08-11T21:59:13.066Z,100132.00
2022-08-11T22:02:00.783Z,100140.00
2022-08-11T22:04:49.449Z,100137.00
2022-08-11T22:07:40.791Z,100138.00
2022-08-11T22:10:42.313Z,100130.00
2022-08-11T22:13:30.455Z,100135.00
2022-08-11T22:16:17.312Z,100137.00
2022-08-11T22:19:08.102Z,100135.00
2022-08-11T22:22:02.600Z,100131.00
2022-08-11T22:24:52.771Z,100128.00
2022-08-11T22:27:39.995Z,100125.00
2022-08-11T22:30:28.948Z,100131.00
2022-08-11T22:33:25.639Z,100126.00
2022-08-11T22:36:16.859Z,100124.00
2022-08-11T22:39:05.731Z,100131.00
2022-08-11T22:41:51.686Z,100131.00
2022-08-11T22:44:37.584Z,100131.00
2022-08-11T22:47:27.485Z,100135.00
2022-08-11T22:50:28.552Z,100130.00
2022-08-11T22:53:18.066Z,100133.00
2022-08-11T22:56:04.157Z,100127.00
2022-08-11T22:58:51.157Z,100127.00
2022-08-11T23:01:38.366Z,100128.00
2022-08-11T23:04:42.373Z,100136.00
2022-08-11T23:07:50.404Z,100133.00
2022-08-11T23:10:36.746Z,100129.00
2022-08-11T23:13:22.722Z,100127.00
2022-08-11T23:16:09.220Z,100130.00
2022-08-11T23:18:56.527Z,100124.00
2022-08-11T23:21:43.861Z,100127.00
2022-08-11T23:24:30.206Z,100137.00
2022-08-11T23:27:18.820Z,100135.00
2022-08-11T23:30:07.059Z,100130.00
2022-08-11T23:32:53.664Z,100127.00
2022-08-11T23:35:52.685Z,100125.00
2022-08-11T23:38:42.413Z,100128.00
2022-08-11T23:41:29.459Z,100130.00
2022-08-11T23:44:19.256Z,100133.00
2022-08-11T23:47:07.154Z,100134.00
2022-08-11T23:49:54.649Z,100132.00
2022-08-11T23:52:41.472Z,100136.00
2022-08-11T23:55:28.314Z,100139.00
2022-08-11T23:58:14.331Z,100141.00
